sensor_id;sensor_type;location;lat;lon;timestamp;P1;durP1;ratioP1;P2;durP2;ratioP2
29728;SDS011;20055;51.498;11.960;2023-11-21T00:00:20;9.30;;;4.13;;
29728;SDS011;20055;51.498;11.960;2023-11-21T00:02:46;10.52;;;3.53;;
29728;SDS011;20055;51.498;11.960;2023-11-21T00:05:13;15.75;;;3.55;;
29728;SDS011;20055;51.498;11.960;2023-11-21T00:07:40;8.48;;;3.67;;
29728;SDS011;20055;51.498;11.960;2023-11-21T00:10:07;13.73;;;3.78;;
29728;SDS011;20055;51.498;11.960;2023-11-21T00:12:35;11.73;;;3.97;;
29728;SDS011;20055;51.498;11.960;2023-11-21T00:15:02;10.43;;;3.55;;
29728;SDS011;20055;51.498;11.960;2023-11-21T00:17:31;9.95;;;3.58;;
29728;SDS011;20055;51.498;11.960;2023-11-21T00:19:57;10.02;;;4.13;;
29728;SDS011;20055;51.498;11.960;2023-11-21T00:22:23;10.20;;;3.88;;
29728;SDS011;20055;51.498;11.960;2023-11-21T00:24:49;8.52;;;3.53;;
29728;SDS011;20055;51.498;11.960;2023-11-21T00:27:16;8.45;;;4.10;;
29728;SDS011;20055;51.498;11.960;2023-11-21T00:29:42;8.30;;;3.60;;
29728;SDS011;20055;51.498;11.960;2023-11-21T00:32:08;11.57;;;4.15;;
29728;SDS011;20055;51.498;11.960;2023-11-21T00:34:35;12.23;;;3.50;;
29728;SDS011;20055;51.498;11.960;2023-11-21T00:37:01;10.80;;;3.78;;
29728;SDS011;20055;51.498;11.960;2023-11-21T00:39:28;8.73;;;4.47;;
29728;SDS011;20055;51.498;11.960;2023-11-21T00:41:54;13.85;;;4.97;;
29728;SDS011;20055;51.498;11.960;2023-11-21T00:44:21;12.27;;;3.83;;
29728;SDS011;20055;51.498;11.960;2023-11-21T00:46:47;7.85;;;4.07;;
29728;SDS011;20055;51.498;11.960;2023-11-21T00:49:13;10.82;;;4.45;;
29728;SDS011;20055;51.498;11.960;2023-11-21T00:51:39;12.20;;;4.32;;
29728;SDS011;20055;51.498;11.960;2023-11-21T00:54:06;10.68;;;4.40;;
29728;SDS011;20055;51.498;11.960;2023-11-21T00:56:32;11.05;;;3.60;;
29728;SDS011;20055;51.498;11.960;2023-11-21T00:58:59;13.02;;;4.50;;
29728;SDS011;20055;51.498;11.960;2023-11-21T01:01:25;10.30;;;4.13;;
29728;SDS011;20055;51.498;11.960;2023-11-21T01:03:52;13.43;;;4.60;;
29728;SDS011;20055;51.498;11.960;2023-11-21T01:06:19;12.20;;;4.25;;
29728;SDS011;20055;51.498;11.960;2023-11-21T01:08:46;10.90;;;4.78;;
29728;SDS011;20055;51.498;11.960;2023-11-21T01:11:12;12.55;;;5.13;;
29728;SDS011;20055;51.498;11.960;2023-11-21T01:13:39;12.13;;;5.47;;
29728;SDS011;20055;51.498;11.960;2023-11-21T01:16:06;12.38;;;4.65;;
29728;SDS011;20055;51.498;11.960;2023-11-21T01:18:32;12.52;;;4.97;;
29728;SDS011;20055;51.498;11.960;2023-11-21T01:20:59;15.38;;;4.50;;
29728;SDS011;20055;51.498;11.960;2023-11-21T01:23:26;13.13;;;4.88;;
29728;SDS011;20055;51.498;11.960;2023-11-21T01:25:53;17.02;;;5.13;;
29728;SDS011;20055;51.498;11.960;2023-11-21T01:28:21;12.63;;;5.55;;
29728;SDS011;20055;51.498;11.960;2023-11-21T01:30:48;13.25;;;4.90;;
29728;SDS011;20055;51.498;11.960;2023-11-21T01:33:14;19.95;;;6.22;;
29728;SDS011;20055;51.498;11.960;2023-11-21T01:35:41;11.88;;;4.90;;
29728;SDS011;20055;51.498;11.960;2023-11-21T01:38:08;14.02;;;4.97;;
29728;SDS011;20055;51.498;11.960;2023-11-21T01:40:34;14.50;;;4.80;;
29728;SDS011;20055;51.498;11.960;2023-11-21T01:43:01;16.58;;;5.07;;
29728;SDS011;20055;51.498;11.960;2023-11-21T01:45:30;11.02;;;5.20;;
29728;SDS011;20055;51.498;11.960;2023-11-21T01:48:00;18.98;;;5.43;;
29728;SDS011;20055;51.498;11.960;2023-11-21T01:50:28;12.20;;;5.15;;
29728;SDS011;20055;51.498;11.960;2023-11-21T01:52:55;13.30;;;5.25;;
29728;SDS011;20055;51.498;11.960;2023-11-21T01:55:22;11.13;;;5.07;;
29728;SDS011;20055;51.498;11.960;2023-11-21T01:57:49;8.02;;;5.28;;
29728;SDS011;20055;51.498;11.960;2023-11-21T02:00:16;13.18;;;5.63;;
29728;SDS011;20055;51.498;11.960;2023-11-21T02:02:45;15.05;;;5.97;;
29728;SDS011;20055;51.498;11.960;2023-11-21T02:05:16;16.00;;;5.70;;
29728;SDS011;20055;51.498;11.960;2023-11-21T02:07:48;14.90;;;5.13;;
29728;SDS011;20055;51.498;11.960;2023-11-21T02:10:15;14.70;;;4.90;;
29728;SDS011;20055;51.498;11.960;2023-11-21T02:12:42;14.68;;;5.50;;
29728;SDS011;20055;51.498;11.960;2023-11-21T02:15:10;11.70;;;4.82;;
29728;SDS011;20055;51.498;11.960;2023-11-21T02:17:42;17.05;;;7.05;;
29728;SDS011;20055;51.498;11.960;2023-11-21T02:20:13;9.55;;;4.65;;
29728;SDS011;20055;51.498;11.960;2023-11-21T02:22:43;17.48;;;6.07;;
29728;SDS011;20055;51.498;11.960;2023-11-21T02:27:50;12.52;;;5.20;;
29728;SDS011;20055;51.498;11.960;2023-11-21T02:30:17;13.13;;;4.88;;
29728;SDS011;20055;51.498;11.960;2023-11-21T02:32:44;12.85;;;4.47;;
29728;SDS011;20055;51.498;11.960;2023-11-21T02:35:11;11.10;;;5.07;;
29728;SDS011;20055;51.498;11.960;2023-11-21T02:37:38;8.65;;;4.68;;
29728;SDS011;20055;51.498;11.960;2023-11-21T02:40:04;12.65;;;5.03;;
29728;SDS011;20055;51.498;11.960;2023-11-21T02:42:33;16.13;;;4.88;;
29728;SDS011;20055;51.498;11.960;2023-11-21T02:45:00;17.65;;;5.13;;
29728;SDS011;20055;51.498;11.960;2023-11-21T02:47:26;14.68;;;4.80;;
29728;SDS011;20055;51.498;11.960;2023-11-21T02:49:53;19.55;;;5.15;;
29728;SDS011;20055;51.498;11.960;2023-11-21T02:52:19;15.05;;;5.72;;
29728;SDS011;20055;51.498;11.960;2023-11-21T02:54:46;13.52;;;4.53;;
29728;SDS011;20055;51.498;11.960;2023-11-21T02:57:13;11.05;;;5.15;;
29728;SDS011;20055;51.498;11.960;2023-11-21T02:59:39;16.85;;;5.75;;
29728;SDS011;20055;51.498;11.960;2023-11-21T03:02:05;18.00;;;6.22;;
29728;SDS011;20055;51.498;11.960;2023-11-21T03:04:34;10.30;;;5.10;;
29728;SDS011;20055;51.498;11.960;2023-11-21T03:07:01;10.93;;;4.78;;
29728;SDS011;20055;51.498;11.960;2023-11-21T03:09:27;10.52;;;4.85;;
29728;SDS011;20055;51.498;11.960;2023-11-21T03:11:53;15.25;;;4.72;;
29728;SDS011;20055;51.498;11.960;2023-11-21T03:14:21;9.40;;;4.22;;
29728;SDS011;20055;51.498;11.960;2023-11-21T03:16:47;14.45;;;5.75;;
29728;SDS011;20055;51.498;11.960;2023-11-21T03:19:15;10.38;;;4.95;;
29728;SDS011;20055;51.498;11.960;2023-11-21T03:21:41;14.10;;;5.32;;
29728;SDS011;20055;51.498;11.960;2023-11-21T03:24:07;16.17;;;5.20;;
29728;SDS011;20055;51.498;11.960;2023-11-21T03:26:34;19.17;;;4.88;;
29728;SDS011;20055;51.498;11.960;2023-11-21T03:29:00;9.93;;;4.88;;
29728;SDS011;20055;51.498;11.960;2023-11-21T03:31:26;17.50;;;5.50;;
29728;SDS011;20055;51.498;11.960;2023-11-21T03:33:53;10.35;;;5.00;;
29728;SDS011;20055;51.498;11.960;2023-11-21T03:36:19;19.05;;;5.57;;
29728;SDS011;20055;51.498;11.960;2023-11-21T03:38:47;13.60;;;5.25;;
29728;SDS011;20055;51.498;11.960;2023-11-21T03:41:14;10.57;;;5.50;;
29728;SDS011;20055;51.498;11.960;2023-11-21T03:43:40;13.23;;;5.25;;
29728;SDS011;20055;51.498;11.960;2023-11-21T03:46:07;7.28;;;4.78;;
29728;SDS011;20055;51.498;11.960;2023-11-21T03:48:33;13.80;;;5.25;;
29728;SDS011;20055;51.498;11.960;2023-11-21T03:50:59;15.57;;;5.70;;
29728;SDS011;20055;51.498;11.960;2023-11-21T03:53:26;14.95;;;5.55;;
29728;SDS011;20055;51.498;11.960;2023-11-21T03:55:52;16.92;;;5.22;;
29728;SDS011;20055;51.498;11.960;2023-11-21T03:58:18;17.02;;;5.25;;
29728;SDS011;20055;51.498;11.960;2023-11-21T04:00:46;12.02;;;5.35;;
29728;SDS011;20055;51.498;11.960;2023-11-21T04:03:14;19.10;;;5.45;;
29728;SDS011;20055;51.498;11.960;2023-11-21T04:05:41;13.73;;;5.65;;
29728;SDS011;20055;51.498;11.960;2023-11-21T04:08:07;13.80;;;5.22;;
29728;SDS011;20055;51.498;11.960;2023-11-21T04:10:33;18.83;;;5.78;;
29728;SDS011;20055;51.498;11.960;2023-11-21T04:13:00;17.95;;;5.65;;
29728;SDS011;20055;51.498;11.960;2023-11-21T04:15:26;18.15;;;6.63;;
29728;SDS011;20055;51.498;11.960;2023-11-21T04:17:53;18.83;;;7.68;;
29728;SDS011;20055;51.498;11.960;2023-11-21T04:20:19;17.02;;;7.70;;
29728;SDS011;20055;51.498;11.960;2023-11-21T04:22:45;33.42;;;14.10;;
29728;SDS011;20055;51.498;11.960;2023-11-21T04:25:12;17.15;;;7.22;;
29728;SDS011;20055;51.498;11.960;2023-11-21T04:27:41;17.15;;;6.78;;
29728;SDS011;20055;51.498;11.960;2023-11-21T04:30:13;17.85;;;6.60;;
29728;SDS011;20055;51.498;11.960;2023-11-21T04:32:40;12.32;;;6.38;;
29728;SDS011;20055;51.498;11.960;2023-11-21T04:35:08;18.52;;;6.85;;
29728;SDS011;20055;51.498;11.960;2023-11-21T04:37:35;18.13;;;6.35;;
29728;SDS011;20055;51.498;11.960;2023-11-21T04:40:01;12.10;;;6.18;;
29728;SDS011;20055;51.498;11.960;2023-11-21T04:42:35;16.70;;;6.80;;
29728;SDS011;20055;51.498;11.960;2023-11-21T04:47:35;13.43;;;6.18;;
29728;SDS011;20055;51.498;11.960;2023-11-21T04:50:02;14.15;;;7.15;;
29728;SDS011;20055;51.498;11.960;2023-11-21T04:52:29;25.92;;;7.60;;
29728;SDS011;20055;51.498;11.960;2023-11-21T04:54:56;20.08;;;7.50;;
29728;SDS011;20055;51.498;11.960;2023-11-21T04:57:24;19.80;;;7.60;;
29728;SDS011;20055;51.498;11.960;2023-11-21T04:59:50;19.33;;;7.20;;
29728;SDS011;20055;51.498;11.960;2023-11-21T05:02:17;30.83;;;7.35;;
29728;SDS011;20055;51.498;11.960;2023-11-21T05:04:45;21.92;;;7.82;;
29728;SDS011;20055;51.498;11.960;2023-11-21T05:07:11;22.15;;;8.07;;
29728;SDS011;20055;51.498;11.960;2023-11-21T05:09:41;14.10;;;6.93;;
29728;SDS011;20055;51.498;11.960;2023-11-21T05:12:12;19.67;;;7.78;;
29728;SDS011;20055;51.498;11.960;2023-11-21T05:14:39;18.83;;;7.72;;
29728;SDS011;20055;51.498;11.960;2023-11-21T05:17:06;27.65;;;8.07;;
29728;SDS011;20055;51.498;11.960;2023-11-21T05:19:34;24.00;;;7.18;;
29728;SDS011;20055;51.498;11.960;2023-11-21T05:22:01;17.67;;;8.00;;
29728;SDS011;20055;51.498;11.960;2023-11-21T05:24:27;23.77;;;7.82;;
29728;SDS011;20055;51.498;11.960;2023-11-21T05:26:54;22.15;;;7.88;;
29728;SDS011;20055;51.498;11.960;2023-11-21T05:29:22;23.83;;;8.32;;
29728;SDS011;20055;51.498;11.960;2023-11-21T05:31:48;22.50;;;8.52;;
29728;SDS011;20055;51.498;11.960;2023-11-21T05:34:15;26.85;;;8.80;;
29728;SDS011;20055;51.498;11.960;2023-11-21T05:36:42;26.02;;;7.90;;
29728;SDS011;20055;51.498;11.960;2023-11-21T05:39:11;20.67;;;8.25;;
29728;SDS011;20055;51.498;11.960;2023-11-21T05:41:37;17.85;;;8.02;;
29728;SDS011;20055;51.498;11.960;2023-11-21T05:44:04;28.35;;;9.57;;
29728;SDS011;20055;51.498;11.960;2023-11-21T05:46:30;29.88;;;8.30;;
29728;SDS011;20055;51.498;11.960;2023-11-21T05:48:57;30.85;;;10.43;;
29728;SDS011;20055;51.498;11.960;2023-11-21T05:51:23;26.83;;;9.63;;
29728;SDS011;20055;51.498;11.960;2023-11-21T05:53:50;28.70;;;9.32;;
29728;SDS011;20055;51.498;11.960;2023-11-21T05:56:16;36.40;;;10.18;;
29728;SDS011;20055;51.498;11.960;2023-11-21T05:58:43;30.05;;;9.20;;
29728;SDS011;20055;51.498;11.960;2023-11-21T06:01:10;25.17;;;9.40;;
29728;SDS011;20055;51.498;11.960;2023-11-21T06:03:38;29.05;;;9.98;;
29728;SDS011;20055;51.498;11.960;2023-11-21T06:06:05;38.15;;;10.35;;
29728;SDS011;20055;51.498;11.960;2023-11-21T06:08:32;34.88;;;11.07;;
29728;SDS011;20055;51.498;11.960;2023-11-21T06:10:58;35.08;;;9.98;;
29728;SDS011;20055;51.498;11.960;2023-11-21T06:13:25;29.83;;;10.60;;
29728;SDS011;20055;51.498;11.960;2023-11-21T06:15:51;30.02;;;10.98;;
29728;SDS011;20055;51.498;11.960;2023-11-21T06:18:18;35.67;;;11.95;;
29728;SDS011;20055;51.498;11.960;2023-11-21T06:20:47;40.08;;;12.40;;
29728;SDS011;20055;51.498;11.960;2023-11-21T06:23:13;34.33;;;10.50;;
29728;SDS011;20055;51.498;11.960;2023-11-21T06:25:40;33.20;;;11.05;;
29728;SDS011;20055;51.498;11.960;2023-11-21T06:28:06;37.25;;;12.27;;
29728;SDS011;20055;51.498;11.960;2023-11-21T06:30:33;33.75;;;11.45;;
29728;SDS011;20055;51.498;11.960;2023-11-21T06:32:59;41.25;;;10.80;;
29728;SDS011;20055;51.498;11.960;2023-11-21T06:35:26;32.00;;;12.48;;
29728;SDS011;20055;51.498;11.960;2023-11-21T06:37:56;57.47;;;14.73;;
29728;SDS011;20055;51.498;11.960;2023-11-21T06:40:22;32.65;;;12.18;;
29728;SDS011;20055;51.498;11.960;2023-11-21T06:42:50;40.35;;;12.38;;
29728;SDS011;20055;51.498;11.960;2023-11-21T06:45:17;42.03;;;16.08;;
29728;SDS011;20055;51.498;11.960;2023-11-21T06:47:43;52.67;;;16.50;;
29728;SDS011;20055;51.498;11.960;2023-11-21T06:50:10;47.35;;;12.57;;
29728;SDS011;20055;51.498;11.960;2023-11-21T06:52:37;45.83;;;13.50;;
29728;SDS011;20055;51.498;11.960;2023-11-21T06:55:04;45.00;;;16.20;;
29728;SDS011;20055;51.498;11.960;2023-11-21T06:57:34;45.77;;;15.33;;
29728;SDS011;20055;51.498;11.960;2023-11-21T07:00:01;46.80;;;17.33;;
29728;SDS011;20055;51.498;11.960;2023-11-21T07:02:27;46.63;;;16.52;;
29728;SDS011;20055;51.498;11.960;2023-11-21T07:04:54;53.88;;;16.45;;
29728;SDS011;20055;51.498;11.960;2023-11-21T07:07:21;51.08;;;18.42;;
29728;SDS011;20055;51.498;11.960;2023-11-21T07:09:47;54.88;;;21.13;;
29728;SDS011;20055;51.498;11.960;2023-11-21T07:12:15;55.75;;;22.70;;
29728;SDS011;20055;51.498;11.960;2023-11-21T07:14:41;58.72;;;22.42;;
29728;SDS011;20055;51.498;11.960;2023-11-21T07:17:10;61.78;;;23.02;;
29728;SDS011;20055;51.498;11.960;2023-11-21T07:19:38;62.90;;;23.60;;
29728;SDS011;20055;51.498;11.960;2023-11-21T07:22:04;59.53;;;22.80;;
29728;SDS011;20055;51.498;11.960;2023-11-21T07:24:32;61.72;;;22.38;;
29728;SDS011;20055;51.498;11.960;2023-11-21T07:26:58;50.05;;;19.25;;
29728;SDS011;20055;51.498;11.960;2023-11-21T07:29:24;48.00;;;19.80;;
29728;SDS011;20055;51.498;11.960;2023-11-21T07:31:52;26.55;;;11.98;;
29728;SDS011;20055;51.498;11.960;2023-11-21T07:34:19;19.98;;;11.18;;
29728;SDS011;20055;51.498;11.960;2023-11-21T07:36:47;23.27;;;10.23;;
29728;SDS011;20055;51.498;11.960;2023-11-21T07:39:13;20.77;;;9.73;;
29728;SDS011;20055;51.498;11.960;2023-11-21T07:41:41;17.27;;;9.57;;
29728;SDS011;20055;51.498;11.960;2023-11-21T07:44:14;20.08;;;9.75;;
29728;SDS011;20055;51.498;11.960;2023-11-21T07:46:42;18.10;;;9.73;;
29728;SDS011;20055;51.498;11.960;2023-11-21T07:49:08;23.05;;;10.02;;
29728;SDS011;20055;51.498;11.960;2023-11-21T07:51:35;19.77;;;10.65;;
29728;SDS011;20055;51.498;11.960;2023-11-21T07:54:01;15.68;;;9.30;;
29728;SDS011;20055;51.498;11.960;2023-11-21T07:56:27;20.75;;;11.73;;
29728;SDS011;20055;51.498;11.960;2023-11-21T07:58:53;18.25;;;9.40;;
29728;SDS011;20055;51.498;11.960;2023-11-21T08:01:20;15.77;;;9.43;;
29728;SDS011;20055;51.498;11.960;2023-11-21T08:03:46;52.85;;;24.02;;
29728;SDS011;20055;51.498;11.960;2023-11-21T08:06:17;35.40;;;18.58;;
29728;SDS011;20055;51.498;11.960;2023-11-21T08:08:43;27.88;;;13.68;;
29728;SDS011;20055;51.498;11.960;2023-11-21T08:11:09;32.08;;;14.95;;
29728;SDS011;20055;51.498;11.960;2023-11-21T08:13:36;23.90;;;11.85;;
29728;SDS011;20055;51.498;11.960;2023-11-21T08:16:03;27.35;;;15.65;;
29728;SDS011;20055;51.498;11.960;2023-11-21T08:18:30;29.20;;;14.82;;
29728;SDS011;20055;51.498;11.960;2023-11-21T08:20:57;20.75;;;11.40;;
29728;SDS011;20055;51.498;11.960;2023-11-21T08:23:23;19.60;;;12.30;;
29728;SDS011;20055;51.498;11.960;2023-11-21T08:25:53;21.38;;;11.88;;
29728;SDS011;20055;51.498;11.960;2023-11-21T08:28:19;20.88;;;11.27;;
29728;SDS011;20055;51.498;11.960;2023-11-21T08:30:47;19.70;;;10.90;;
29728;SDS011;20055;51.498;11.960;2023-11-21T08:33:14;21.55;;;12.18;;
29728;SDS011;20055;51.498;11.960;2023-11-21T08:35:40;20.98;;;11.77;;
29728;SDS011;20055;51.498;11.960;2023-11-21T08:38:06;19.60;;;11.52;;
29728;SDS011;20055;51.498;11.960;2023-11-21T08:40:34;27.80;;;13.30;;
29728;SDS011;20055;51.498;11.960;2023-11-21T08:43:01;23.73;;;12.63;;
29728;SDS011;20055;51.498;11.960;2023-11-21T08:45:30;23.52;;;13.10;;
29728;SDS011;20055;51.498;11.960;2023-11-21T08:47:57;25.38;;;13.00;;
29728;SDS011;20055;51.498;11.960;2023-11-21T08:50:23;26.20;;;13.95;;
29728;SDS011;20055;51.498;11.960;2023-11-21T08:52:49;30.63;;;14.48;;
29728;SDS011;20055;51.498;11.960;2023-11-21T08:55:16;29.67;;;14.50;;
29728;SDS011;20055;51.498;11.960;2023-11-21T08:57:43;29.98;;;15.27;;
29728;SDS011;20055;51.498;11.960;2023-11-21T09:00:12;32.97;;;15.40;;
29728;SDS011;20055;51.498;11.960;2023-11-21T09:02:41;35.15;;;16.17;;
29728;SDS011;20055;51.498;11.960;2023-11-21T09:05:09;41.42;;;17.17;;
29728;SDS011;20055;51.498;11.960;2023-11-21T09:07:36;37.03;;;17.52;;
29728;SDS011;20055;51.498;11.960;2023-11-21T09:10:04;42.83;;;19.50;;
29728;SDS011;20055;51.498;11.960;2023-11-21T09:12:33;37.70;;;18.52;;
29728;SDS011;20055;51.498;11.960;2023-11-21T09:15:04;40.45;;;18.88;;
29728;SDS011;20055;51.498;11.960;2023-11-21T09:17:34;44.58;;;18.48;;
29728;SDS011;20055;51.498;11.960;2023-11-21T09:20:01;33.78;;;17.20;;
29728;SDS011;20055;51.498;11.960;2023-11-21T09:22:31;36.72;;;16.92;;
29728;SDS011;20055;51.498;11.960;2023-11-21T09:24:57;32.95;;;16.10;;
29728;SDS011;20055;51.498;11.960;2023-11-21T09:27:24;37.03;;;15.65;;
29728;SDS011;20055;51.498;11.960;2023-11-21T09:29:51;38.65;;;17.88;;
29728;SDS011;20055;51.498;11.960;2023-11-21T09:32:18;32.10;;;16.10;;
29728;SDS011;20055;51.498;11.960;2023-11-21T09:34:48;34.95;;;17.80;;
29728;SDS011;20055;51.498;11.960;2023-11-21T09:37:14;34.08;;;16.92;;
29728;SDS011;20055;51.498;11.960;2023-11-21T09:39:41;39.80;;;17.85;;
29728;SDS011;20055;51.498;11.960;2023-11-21T09:42:10;36.50;;;17.80;;
29728;SDS011;20055;51.498;11.960;2023-11-21T09:47:12;33.13;;;15.90;;
29728;SDS011;20055;51.498;11.960;2023-11-21T09:49:47;40.35;;;18.08;;
29728;SDS011;20055;51.498;11.960;2023-11-21T09:52:17;35.80;;;16.92;;
29728;SDS011;20055;51.498;11.960;2023-11-21T09:54:49;31.63;;;16.17;;
29728;SDS011;20055;51.498;11.960;2023-11-21T09:57:17;30.38;;;15.23;;
29728;SDS011;20055;51.498;11.960;2023-11-21T09:59:49;31.92;;;15.07;;
29728;SDS011;20055;51.498;11.960;2023-11-21T10:02:18;28.05;;;15.13;;
29728;SDS011;20055;51.498;11.960;2023-11-21T10:04:46;30.92;;;14.40;;
29728;SDS011;20055;51.498;11.960;2023-11-21T10:07:13;30.00;;;15.23;;
29728;SDS011;20055;51.498;11.960;2023-11-21T10:09:43;26.27;;;14.55;;
29728;SDS011;20055;51.498;11.960;2023-11-21T10:12:10;29.08;;;15.13;;
29728;SDS011;20055;51.498;11.960;2023-11-21T10:14:40;28.10;;;15.00;;
29728;SDS011;20055;51.498;11.960;2023-11-21T10:17:10;27.15;;;14.65;;
29728;SDS011;20055;51.498;11.960;2023-11-21T10:19:38;25.38;;;14.23;;
29728;SDS011;20055;51.498;11.960;2023-11-21T10:22:05;29.60;;;16.15;;
29728;SDS011;20055;51.498;11.960;2023-11-21T10:24:33;31.65;;;15.50;;
29728;SDS011;20055;51.498;11.960;2023-11-21T10:26:59;26.10;;;15.40;;
29728;SDS011;20055;51.498;11.960;2023-11-21T10:29:30;28.50;;;13.70;;
29728;SDS011;20055;51.498;11.960;2023-11-21T10:32:04;30.23;;;14.68;;
29728;SDS011;20055;51.498;11.960;2023-11-21T10:34:31;36.53;;;14.75;;
29728;SDS011;20055;51.498;11.960;2023-11-21T10:36:58;26.88;;;14.18;;
29728;SDS011;20055;51.498;11.960;2023-11-21T10:39:25;31.88;;;14.73;;
29728;SDS011;20055;51.498;11.960;2023-11-21T10:41:54;32.83;;;15.32;;
29728;SDS011;20055;51.498;11.960;2023-11-21T10:44:21;25.77;;;14.05;;
29728;SDS011;20055;51.498;11.960;2023-11-21T10:46:50;25.38;;;14.35;;
29728;SDS011;20055;51.498;11.960;2023-11-21T10:49:18;23.98;;;13.38;;
29728;SDS011;20055;51.498;11.960;2023-11-21T10:51:45;30.13;;;13.48;;
29728;SDS011;20055;51.498;11.960;2023-11-21T10:54:18;27.83;;;15.18;;
29728;SDS011;20055;51.498;11.960;2023-11-21T10:56:46;23.95;;;13.23;;
29728;SDS011;20055;51.498;11.960;2023-11-21T10:59:16;25.55;;;12.93;;
29728;SDS011;20055;51.498;11.960;2023-11-21T11:01:46;29.40;;;14.20;;
29728;SDS011;20055;51.498;11.960;2023-11-21T11:04:16;24.90;;;14.52;;
29728;SDS011;20055;51.498;11.960;2023-11-21T11:06:51;26.42;;;14.25;;
29728;SDS011;20055;51.498;11.960;2023-11-21T11:09:23;25.33;;;14.20;;
29728;SDS011;20055;51.498;11.960;2023-11-21T11:11:50;26.38;;;13.93;;
29728;SDS011;20055;51.498;11.960;2023-11-21T11:14:18;28.77;;;15.45;;
29728;SDS011;20055;51.498;11.960;2023-11-21T11:16:45;27.52;;;16.23;;
29728;SDS011;20055;51.498;11.960;2023-11-21T11:19:12;29.55;;;16.42;;
29728;SDS011;20055;51.498;11.960;2023-11-21T11:21:44;30.23;;;16.80;;
29728;SDS011;20055;51.498;11.960;2023-11-21T11:27:54;34.97;;;17.52;;
29728;SDS011;20055;51.498;11.960;2023-11-21T11:33:04;35.15;;;16.90;;
29728;SDS011;20055;51.498;11.960;2023-11-21T11:36:13;34.92;;;18.80;;
29728;SDS011;20055;51.498;11.960;2023-11-21T11:38:54;33.67;;;18.70;;
29728;SDS011;20055;51.498;11.960;2023-11-21T11:41:25;36.10;;;17.00;;
29728;SDS011;20055;51.498;11.960;2023-11-21T11:43:53;37.17;;;18.88;;
29728;SDS011;20055;51.498;11.960;2023-11-21T11:46:20;46.72;;;20.77;;
29728;SDS011;20055;51.498;11.960;2023-11-21T11:49:05;48.00;;;21.65;;
29728;SDS011;20055;51.498;11.960;2023-11-21T11:51:33;46.45;;;22.58;;
29728;SDS011;20055;51.498;11.960;2023-11-21T11:54:01;43.70;;;22.23;;
29728;SDS011;20055;51.498;11.960;2023-11-21T11:56:28;46.00;;;21.25;;
29728;SDS011;20055;51.498;11.960;2023-11-21T11:59:00;45.10;;;22.70;;
29728;SDS011;20055;51.498;11.960;2023-11-21T12:01:28;45.33;;;20.88;;
29728;SDS011;20055;51.498;11.960;2023-11-21T12:06:42;48.85;;;26.17;;
29728;SDS011;20055;51.498;11.960;2023-11-21T12:09:19;49.88;;;22.73;;
29728;SDS011;20055;51.498;11.960;2023-11-21T12:11:47;44.40;;;21.85;;
29728;SDS011;20055;51.498;11.960;2023-11-21T12:14:15;51.20;;;23.15;;
29728;SDS011;20055;51.498;11.960;2023-11-21T12:16:42;42.10;;;19.88;;
29728;SDS011;20055;51.498;11.960;2023-11-21T12:19:12;47.47;;;20.02;;
29728;SDS011;20055;51.498;11.960;2023-11-21T12:21:38;45.95;;;19.92;;
29728;SDS011;20055;51.498;11.960;2023-11-21T12:24:08;39.50;;;18.75;;
29728;SDS011;20055;51.498;11.960;2023-11-21T12:26:34;38.75;;;18.50;;
29728;SDS011;20055;51.498;11.960;2023-11-21T12:29:04;35.85;;;18.23;;
29728;SDS011;20055;51.498;11.960;2023-11-21T12:31:33;40.22;;;18.02;;
29728;SDS011;20055;51.498;11.960;2023-11-21T12:34:02;40.30;;;18.13;;
29728;SDS011;20055;51.498;11.960;2023-11-21T12:36:30;39.50;;;18.98;;
29728;SDS011;20055;51.498;11.960;2023-11-21T12:38:56;40.90;;;17.77;;
29728;SDS011;20055;51.498;11.960;2023-11-21T12:41:23;40.70;;;19.48;;
29728;SDS011;20055;51.498;11.960;2023-11-21T12:43:49;30.10;;;15.80;;
29728;SDS011;20055;51.498;11.960;2023-11-21T12:46:15;32.90;;;16.75;;
29728;SDS011;20055;51.498;11.960;2023-11-21T12:48:43;32.72;;;16.88;;
29728;SDS011;20055;51.498;11.960;2023-11-21T12:51:11;32.35;;;15.77;;
29728;SDS011;20055;51.498;11.960;2023-11-21T12:53:40;30.20;;;17.48;;
29728;SDS011;20055;51.498;11.960;2023-11-21T12:56:09;39.72;;;16.38;;
29728;SDS011;20055;51.498;11.960;2023-11-21T12:58:36;31.63;;;15.15;;
29728;SDS011;20055;51.498;11.960;2023-11-21T13:01:07;29.70;;;15.43;;
29728;SDS011;20055;51.498;11.960;2023-11-21T13:03:47;33.70;;;14.90;;
29728;SDS011;20055;51.498;11.960;2023-11-21T13:06:17;24.55;;;13.25;;
29728;SDS011;20055;51.498;11.960;2023-11-21T13:08:44;25.60;;;14.07;;
29728;SDS011;20055;51.498;11.960;2023-11-21T13:11:11;27.65;;;14.70;;
29728;SDS011;20055;51.498;11.960;2023-11-21T13:13:40;28.38;;;13.25;;
29728;SDS011;20055;51.498;11.960;2023-11-21T13:16:11;24.60;;;13.70;;
29728;SDS011;20055;51.498;11.960;2023-11-21T13:18:38;26.73;;;12.82;;
29728;SDS011;20055;51.498;11.960;2023-11-21T13:21:07;31.67;;;16.55;;
29728;SDS011;20055;51.498;11.960;2023-11-21T13:23:39;26.73;;;14.07;;
29728;SDS011;20055;51.498;11.960;2023-11-21T13:26:07;25.10;;;13.38;;
29728;SDS011;20055;51.498;11.960;2023-11-21T13:28:35;27.33;;;14.93;;
29728;SDS011;20055;51.498;11.960;2023-11-21T13:31:03;34.92;;;18.73;;
29728;SDS011;20055;51.498;11.960;2023-11-21T13:33:47;27.65;;;14.25;;
29728;SDS011;20055;51.498;11.960;2023-11-21T13:36:24;28.90;;;12.98;;
29728;SDS011;20055;51.498;11.960;2023-11-21T13:38:51;25.45;;;12.85;;
29728;SDS011;20055;51.498;11.960;2023-11-21T13:41:20;26.33;;;14.02;;
29728;SDS011;20055;51.498;11.960;2023-11-21T13:43:53;26.85;;;12.73;;
29728;SDS011;20055;51.498;11.960;2023-11-21T13:46:29;26.60;;;14.35;;
29728;SDS011;20055;51.498;11.960;2023-11-21T13:49:01;30.27;;;13.18;;
29728;SDS011;20055;51.498;11.960;2023-11-21T13:51:27;24.10;;;12.25;;
29728;SDS011;20055;51.498;11.960;2023-11-21T13:54:03;21.45;;;12.00;;
29728;SDS011;20055;51.498;11.960;2023-11-21T13:56:37;23.17;;;11.50;;
29728;SDS011;20055;51.498;11.960;2023-11-21T13:59:05;20.95;;;11.80;;
29728;SDS011;20055;51.498;11.960;2023-11-21T14:01:42;21.15;;;9.95;;
29728;SDS011;20055;51.498;11.960;2023-11-21T14:04:42;23.77;;;10.37;;
29728;SDS011;20055;51.498;11.960;2023-11-21T14:07:23;21.00;;;10.15;;
29728;SDS011;20055;51.498;11.960;2023-11-21T14:10:01;18.92;;;9.45;;
29728;SDS011;20055;51.498;11.960;2023-11-21T14:12:29;22.35;;;10.38;;
29728;SDS011;20055;51.498;11.960;2023-11-21T14:14:59;30.10;;;11.45;;
29728;SDS011;20055;51.498;11.960;2023-11-21T14:17:30;20.02;;;10.38;;
29728;SDS011;20055;51.498;11.960;2023-11-21T14:19:56;22.42;;;9.60;;
29728;SDS011;20055;51.498;11.960;2023-11-21T14:22:23;25.73;;;9.73;;
29728;SDS011;20055;51.498;11.960;2023-11-21T14:24:51;16.80;;;8.48;;
29728;SDS011;20055;51.498;11.960;2023-11-21T14:27:18;17.58;;;8.70;;
29728;SDS011;20055;51.498;11.960;2023-11-21T14:29:44;15.65;;;8.27;;
29728;SDS011;20055;51.498;11.960;2023-11-21T14:32:11;18.23;;;9.48;;
29728;SDS011;20055;51.498;11.960;2023-11-21T14:34:37;16.95;;;8.15;;
29728;SDS011;20055;51.498;11.960;2023-11-21T14:37:04;17.73;;;7.82;;